sensor_id;sensor_type;location;lat;lon;timestamp;P1;durP1;ratioP1;P2;durP2;ratioP2
4508;SDS011;2267;48.816;9.230;2022-09-17T00:01:07;2.50;;;1.70;;
4508;SDS011;2267;48.816;9.230;2022-09-17T00:03:40;1.73;;;1.10;;
4508;SDS011;2267;48.816;9.230;2022-09-17T00:06:08;2.20;;;1.10;;
4508;SDS011;2267;48.816;9.230;2022-09-17T00:08:37;2.07;;;1.20;;
4508;SDS011;2267;48.816;9.230;2022-09-17T00:11:07;1.60;;;1.03;;
4508;SDS011;2267;48.816;9.230;2022-09-17T00:13:46;2.17;;;1.10;;
4508;SDS011;2267;48.816;9.230;2022-09-17T00:16:20;1.70;;;1.20;;
4508;SDS011;2267;48.816;9.230;2022-09-17T00:18:52;2.10;;;1.10;;
4508;SDS011;2267;48.816;9.230;2022-09-17T00:21:19;1.93;;;1.20;;
4508;SDS011;2267;48.816;9.230;2022-09-17T00:23:46;2.40;;;1.30;;
4508;SDS011;2267;48.816;9.230;2022-09-17T00:26:14;2.67;;;1.10;;
4508;SDS011;2267;48.816;9.230;2022-09-17T00:28:40;2.87;;;1.10;;
4508;SDS011;2267;48.816;9.230;2022-09-17T00:31:10;1.77;;;1.17;;
4508;SDS011;2267;48.816;9.230;2022-09-17T00:33:37;2.83;;;1.30;;
4508;SDS011;2267;48.816;9.230;2022-09-17T00:36:04;2.50;;;1.30;;
4508;SDS011;2267;48.816;9.230;2022-09-17T00:38:31;1.93;;;1.17;;
4508;SDS011;2267;48.816;9.230;2022-09-17T00:40:58;3.83;;;1.20;;
4508;SDS011;2267;48.816;9.230;2022-09-17T00:43:32;3.20;;;1.30;;
4508;SDS011;2267;48.816;9.230;2022-09-17T00:46:28;2.47;;;1.40;;
4508;SDS011;2267;48.816;9.230;2022-09-17T00:49:08;2.23;;;1.23;;
4508;SDS011;2267;48.816;9.230;2022-09-17T00:52:03;2.30;;;1.50;;
4508;SDS011;2267;48.816;9.230;2022-09-17T00:54:32;2.53;;;1.10;;
4508;SDS011;2267;48.816;9.230;2022-09-17T00:57:01;2.57;;;1.50;;
4508;SDS011;2267;48.816;9.230;2022-09-17T00:59:28;1.50;;;1.00;;
4508;SDS011;2267;48.816;9.230;2022-09-17T01:01:55;3.23;;;1.30;;
4508;SDS011;2267;48.816;9.230;2022-09-17T01:04:24;2.53;;;1.37;;
4508;SDS011;2267;48.816;9.230;2022-09-17T01:09:56;2.60;;;1.50;;
4508;SDS011;2267;48.816;9.230;2022-09-17T01:21:02;3.10;;;1.40;;
4508;SDS011;2267;48.816;9.230;2022-09-17T01:24:04;2.17;;;1.47;;
4508;SDS011;2267;48.816;9.230;2022-09-17T01:32:51;3.60;;;1.40;;
4508;SDS011;2267;48.816;9.230;2022-09-17T01:38:14;2.43;;;1.40;;
4508;SDS011;2267;48.816;9.230;2022-09-17T01:41:05;2.20;;;1.40;;
4508;SDS011;2267;48.816;9.230;2022-09-17T01:46:39;2.93;;;1.50;;
4508;SDS011;2267;48.816;9.230;2022-09-17T01:49:14;2.33;;;1.50;;
4508;SDS011;2267;48.816;9.230;2022-09-17T01:51:43;2.43;;;2.03;;
4508;SDS011;2267;48.816;9.230;2022-09-17T01:54:22;3.40;;;1.83;;
4508;SDS011;2267;48.816;9.230;2022-09-17T01:56:54;3.00;;;1.47;;
4508;SDS011;2267;48.816;9.230;2022-09-17T01:59:33;2.63;;;1.73;;
4508;SDS011;2267;48.816;9.230;2022-09-17T02:02:07;2.43;;;1.73;;
4508;SDS011;2267;48.816;9.230;2022-09-17T02:04:45;3.83;;;1.70;;
4508;SDS011;2267;48.816;9.230;2022-09-17T02:07:19;3.13;;;1.67;;
4508;SDS011;2267;48.816;9.230;2022-09-17T02:10:02;2.20;;;1.40;;
4508;SDS011;2267;48.816;9.230;2022-09-17T02:12:34;3.03;;;2.13;;
4508;SDS011;2267;48.816;9.230;2022-09-17T02:15:06;3.50;;;1.50;;
4508;SDS011;2267;48.816;9.230;2022-09-17T02:17:42;4.03;;;1.87;;
4508;SDS011;2267;48.816;9.230;2022-09-17T02:20:14;4.90;;;1.50;;
4508;SDS011;2267;48.816;9.230;2022-09-17T02:22:51;3.37;;;1.50;;
4508;SDS011;2267;48.816;9.230;2022-09-17T02:30:27;3.37;;;1.80;;
4508;SDS011;2267;48.816;9.230;2022-09-17T02:32:54;5.27;;;2.07;;
4508;SDS011;2267;48.816;9.230;2022-09-17T02:35:21;3.60;;;1.97;;
4508;SDS011;2267;48.816;9.230;2022-09-17T02:37:48;2.70;;;1.60;;
4508;SDS011;2267;48.816;9.230;2022-09-17T02:40:16;4.27;;;1.60;;
4508;SDS011;2267;48.816;9.230;2022-09-17T02:45:36;3.73;;;2.20;;
4508;SDS011;2267;48.816;9.230;2022-09-17T02:48:14;2.47;;;1.50;;
4508;SDS011;2267;48.816;9.230;2022-09-17T02:56:32;3.13;;;1.67;;
4508;SDS011;2267;48.816;9.230;2022-09-17T02:59:11;3.07;;;1.60;;
4508;SDS011;2267;48.816;9.230;2022-09-17T03:01:43;4.00;;;1.70;;
4508;SDS011;2267;48.816;9.230;2022-09-17T03:04:17;2.40;;;1.50;;
4508;SDS011;2267;48.816;9.230;2022-09-17T03:06:46;2.97;;;2.13;;
4508;SDS011;2267;48.816;9.230;2022-09-17T03:09:15;3.97;;;1.53;;
4508;SDS011;2267;48.816;9.230;2022-09-17T03:11:42;5.00;;;1.90;;
4508;SDS011;2267;48.816;9.230;2022-09-17T03:14:09;3.50;;;1.90;;
4508;SDS011;2267;48.816;9.230;2022-09-17T03:16:35;2.83;;;1.60;;
4508;SDS011;2267;48.816;9.230;2022-09-17T03:19:02;3.03;;;1.70;;
4508;SDS011;2267;48.816;9.230;2022-09-17T03:21:29;5.20;;;1.57;;
4508;SDS011;2267;48.816;9.230;2022-09-17T03:23:56;3.30;;;2.00;;
4508;SDS011;2267;48.816;9.230;2022-09-17T03:26:25;3.87;;;2.23;;
4508;SDS011;2267;48.816;9.230;2022-09-17T03:28:52;2.70;;;1.77;;
4508;SDS011;2267;48.816;9.230;2022-09-17T03:31:19;3.60;;;1.70;;
4508;SDS011;2267;48.816;9.230;2022-09-17T03:33:46;3.90;;;1.90;;
4508;SDS011;2267;48.816;9.230;2022-09-17T03:36:13;3.20;;;1.90;;
4508;SDS011;2267;48.816;9.230;2022-09-17T03:38:40;9.67;;;1.70;;
4508;SDS011;2267;48.816;9.230;2022-09-17T03:41:07;3.87;;;1.80;;
4508;SDS011;2267;48.816;9.230;2022-09-17T03:43:34;3.10;;;1.80;;
4508;SDS011;2267;48.816;9.230;2022-09-17T03:46:00;3.53;;;1.47;;
4508;SDS011;2267;48.816;9.230;2022-09-17T03:48:28;3.97;;;1.70;;
4508;SDS011;2267;48.816;9.230;2022-09-17T03:50:55;7.63;;;1.97;;
4508;SDS011;2267;48.816;9.230;2022-09-17T03:53:22;2.97;;;1.60;;
4508;SDS011;2267;48.816;9.230;2022-09-17T03:55:49;3.57;;;2.00;;
4508;SDS011;2267;48.816;9.230;2022-09-17T03:58:16;4.50;;;2.20;;
4508;SDS011;2267;48.816;9.230;2022-09-17T04:00:42;2.53;;;1.77;;
4508;SDS011;2267;48.816;9.230;2022-09-17T04:03:09;5.07;;;2.57;;
4508;SDS011;2267;48.816;9.230;2022-09-17T04:05:36;3.50;;;1.77;;
4508;SDS011;2267;48.816;9.230;2022-09-17T04:08:03;4.10;;;1.80;;
4508;SDS011;2267;48.816;9.230;2022-09-17T04:10:30;2.53;;;1.70;;
4508;SDS011;2267;48.816;9.230;2022-09-17T04:12:56;3.87;;;1.90;;
4508;SDS011;2267;48.816;9.230;2022-09-17T04:15:23;3.30;;;2.13;;
4508;SDS011;2267;48.816;9.230;2022-09-17T04:17:50;3.43;;;1.80;;
4508;SDS011;2267;48.816;9.230;2022-09-17T04:20:20;3.30;;;2.10;;
4508;SDS011;2267;48.816;9.230;2022-09-17T04:22:46;4.13;;;1.77;;
4508;SDS011;2267;48.816;9.230;2022-09-17T04:25:13;2.33;;;1.60;;
4508;SDS011;2267;48.816;9.230;2022-09-17T04:27:40;2.90;;;1.60;;
4508;SDS011;2267;48.816;9.230;2022-09-17T04:30:06;3.50;;;1.73;;
4508;SDS011;2267;48.816;9.230;2022-09-17T04:32:33;6.00;;;1.80;;
4508;SDS011;2267;48.816;9.230;2022-09-17T04:35:00;2.50;;;1.90;;
4508;SDS011;2267;48.816;9.230;2022-09-17T04:37:27;3.90;;;2.10;;
4508;SDS011;2267;48.816;9.230;2022-09-17T04:39:54;4.73;;;1.80;;
4508;SDS011;2267;48.816;9.230;2022-09-17T04:42:20;2.30;;;1.50;;
4508;SDS011;2267;48.816;9.230;2022-09-17T04:44:47;3.60;;;2.17;;
4508;SDS011;2267;48.816;9.230;2022-09-17T04:47:14;4.70;;;1.90;;
4508;SDS011;2267;48.816;9.230;2022-09-17T04:49:41;3.20;;;1.67;;
4508;SDS011;2267;48.816;9.230;2022-09-17T04:52:07;7.20;;;2.20;;
4508;SDS011;2267;48.816;9.230;2022-09-17T04:54:34;2.90;;;1.70;;
4508;SDS011;2267;48.816;9.230;2022-09-17T04:57:01;3.47;;;1.83;;
4508;SDS011;2267;48.816;9.230;2022-09-17T04:59:28;3.10;;;1.80;;
4508;SDS011;2267;48.816;9.230;2022-09-17T05:01:54;4.53;;;1.90;;
4508;SDS011;2267;48.816;9.230;2022-09-17T05:04:21;4.40;;;1.87;;
4508;SDS011;2267;48.816;9.230;2022-09-17T05:06:48;2.97;;;1.90;;
4508;SDS011;2267;48.816;9.230;2022-09-17T05:09:15;4.47;;;1.80;;
4508;SDS011;2267;48.816;9.230;2022-09-17T05:11:42;4.50;;;2.00;;
4508;SDS011;2267;48.816;9.230;2022-09-17T05:14:09;3.80;;;2.00;;
4508;SDS011;2267;48.816;9.230;2022-09-17T05:16:35;4.43;;;2.30;;
4508;SDS011;2267;48.816;9.230;2022-09-17T05:19:02;3.37;;;2.20;;
4508;SDS011;2267;48.816;9.230;2022-09-17T05:21:29;2.90;;;1.63;;
4508;SDS011;2267;48.816;9.230;2022-09-17T05:23:56;4.83;;;1.97;;
4508;SDS011;2267;48.816;9.230;2022-09-17T05:26:23;4.27;;;2.53;;
4508;SDS011;2267;48.816;9.230;2022-09-17T05:28:50;4.40;;;2.00;;
4508;SDS011;2267;48.816;9.230;2022-09-17T05:31:17;3.80;;;2.30;;
4508;SDS011;2267;48.816;9.230;2022-09-17T05:33:43;4.53;;;2.17;;
4508;SDS011;2267;48.816;9.230;2022-09-17T05:36:10;5.47;;;2.73;;
4508;SDS011;2267;48.816;9.230;2022-09-17T05:38:37;3.83;;;2.17;;
4508;SDS011;2267;48.816;9.230;2022-09-17T05:41:04;2.50;;;2.00;;
4508;SDS011;2267;48.816;9.230;2022-09-17T05:43:32;5.53;;;2.40;;
4508;SDS011;2267;48.816;9.230;2022-09-17T05:46:00;7.47;;;2.23;;
4508;SDS011;2267;48.816;9.230;2022-09-17T05:48:28;3.60;;;2.10;;
4508;SDS011;2267;48.816;9.230;2022-09-17T05:50:55;4.50;;;1.90;;
4508;SDS011;2267;48.816;9.230;2022-09-17T05:53:21;3.13;;;1.83;;
4508;SDS011;2267;48.816;9.230;2022-09-17T05:55:48;6.27;;;1.93;;
4508;SDS011;2267;48.816;9.230;2022-09-17T05:58:16;5.30;;;2.00;;
4508;SDS011;2267;48.816;9.230;2022-09-17T06:00:44;3.20;;;2.00;;
4508;SDS011;2267;48.816;9.230;2022-09-17T06:03:13;5.67;;;2.70;;
4508;SDS011;2267;48.816;9.230;2022-09-17T06:05:40;4.27;;;2.10;;
4508;SDS011;2267;48.816;9.230;2022-09-17T06:08:08;4.97;;;2.43;;
4508;SDS011;2267;48.816;9.230;2022-09-17T06:10:35;4.07;;;2.10;;
4508;SDS011;2267;48.816;9.230;2022-09-17T06:13:03;3.60;;;2.10;;
4508;SDS011;2267;48.816;9.230;2022-09-17T06:15:30;5.00;;;1.97;;
4508;SDS011;2267;48.816;9.230;2022-09-17T06:17:57;7.40;;;2.50;;
4508;SDS011;2267;48.816;9.230;2022-09-17T06:20:23;6.03;;;2.30;;
4508;SDS011;2267;48.816;9.230;2022-09-17T06:22:54;4.40;;;2.70;;
4508;SDS011;2267;48.816;9.230;2022-09-17T06:25:22;3.23;;;2.10;;
4508;SDS011;2267;48.816;9.230;2022-09-17T06:27:49;4.60;;;2.77;;
4508;SDS011;2267;48.816;9.230;2022-09-17T06:30:16;5.43;;;2.90;;
4508;SDS011;2267;48.816;9.230;2022-09-17T06:32:43;4.10;;;2.43;;
4508;SDS011;2267;48.816;9.230;2022-09-17T06:35:11;3.13;;;2.23;;
4508;SDS011;2267;48.816;9.230;2022-09-17T06:37:37;11.17;;;3.27;;
4508;SDS011;2267;48.816;9.230;2022-09-17T06:40:06;6.87;;;2.17;;
4508;SDS011;2267;48.816;9.230;2022-09-17T06:42:34;6.33;;;2.77;;
4508;SDS011;2267;48.816;9.230;2022-09-17T06:45:00;2.70;;;2.27;;
4508;SDS011;2267;48.816;9.230;2022-09-17T06:47:33;4.67;;;2.63;;
4508;SDS011;2267;48.816;9.230;2022-09-17T06:50:00;3.43;;;2.00;;
4508;SDS011;2267;48.816;9.230;2022-09-17T06:52:27;8.83;;;2.47;;
4508;SDS011;2267;48.816;9.230;2022-09-17T06:54:54;3.57;;;2.00;;
4508;SDS011;2267;48.816;9.230;2022-09-17T06:57:21;5.00;;;2.30;;
4508;SDS011;2267;48.816;9.230;2022-09-17T06:59:48;4.13;;;2.60;;
4508;SDS011;2267;48.816;9.230;2022-09-17T07:02:15;3.73;;;2.33;;
4508;SDS011;2267;48.816;9.230;2022-09-17T07:04:42;3.30;;;2.30;;
4508;SDS011;2267;48.816;9.230;2022-09-17T07:07:08;5.40;;;2.07;;
4508;SDS011;2267;48.816;9.230;2022-09-17T07:09:35;2.90;;;2.17;;
4508;SDS011;2267;48.816;9.230;2022-09-17T07:12:05;4.53;;;2.17;;
4508;SDS011;2267;48.816;9.230;2022-09-17T07:14:33;3.47;;;2.17;;
4508;SDS011;2267;48.816;9.230;2022-09-17T07:17:00;5.33;;;2.50;;
4508;SDS011;2267;48.816;9.230;2022-09-17T07:19:26;4.20;;;2.30;;
4508;SDS011;2267;48.816;9.230;2022-09-17T07:21:53;5.60;;;2.13;;
4508;SDS011;2267;48.816;9.230;2022-09-17T07:24:20;6.50;;;2.47;;
4508;SDS011;2267;48.816;9.230;2022-09-17T07:26:46;4.00;;;2.50;;
4508;SDS011;2267;48.816;9.230;2022-09-17T07:29:15;5.90;;;2.30;;
4508;SDS011;2267;48.816;9.230;2022-09-17T07:31:42;2.80;;;2.30;;
4508;SDS011;2267;48.816;9.230;2022-09-17T07:34:09;3.50;;;2.10;;
4508;SDS011;2267;48.816;9.230;2022-09-17T07:36:36;3.73;;;2.23;;
4508;SDS011;2267;48.816;9.230;2022-09-17T07:39:03;4.47;;;2.30;;
4508;SDS011;2267;48.816;9.230;2022-09-17T07:41:29;3.30;;;2.37;;
4508;SDS011;2267;48.816;9.230;2022-09-17T07:43:57;2.40;;;1.90;;
4508;SDS011;2267;48.816;9.230;2022-09-17T07:46:24;2.87;;;2.40;;
4508;SDS011;2267;48.816;9.230;2022-09-17T07:48:51;7.03;;;2.80;;
4508;SDS011;2267;48.816;9.230;2022-09-17T07:51:18;5.03;;;2.40;;
4508;SDS011;2267;48.816;9.230;2022-09-17T07:53:50;4.10;;;2.80;;
4508;SDS011;2267;48.816;9.230;2022-09-17T07:56:18;3.40;;;2.33;;
4508;SDS011;2267;48.816;9.230;2022-09-17T07:58:45;3.70;;;1.83;;
4508;SDS011;2267;48.816;9.230;2022-09-17T08:01:12;2.40;;;1.97;;
4508;SDS011;2267;48.816;9.230;2022-09-17T08:03:42;2.87;;;2.00;;
4508;SDS011;2267;48.816;9.230;2022-09-17T08:06:13;4.30;;;2.13;;
4508;SDS011;2267;48.816;9.230;2022-09-17T08:08:42;4.50;;;2.57;;
4508;SDS011;2267;48.816;9.230;2022-09-17T08:11:10;3.90;;;2.30;;
4508;SDS011;2267;48.816;9.230;2022-09-17T08:13:39;4.27;;;2.87;;
4508;SDS011;2267;48.816;9.230;2022-09-17T08:16:07;3.70;;;2.33;;
4508;SDS011;2267;48.816;9.230;2022-09-17T08:18:36;4.77;;;2.93;;
4508;SDS011;2267;48.816;9.230;2022-09-17T08:21:04;4.50;;;2.50;;
4508;SDS011;2267;48.816;9.230;2022-09-17T08:23:35;3.10;;;2.00;;
4508;SDS011;2267;48.816;9.230;2022-09-17T08:26:04;3.43;;;2.60;;
4508;SDS011;2267;48.816;9.230;2022-09-17T08:28:33;4.23;;;2.80;;
4508;SDS011;2267;48.816;9.230;2022-09-17T08:31:01;3.40;;;2.67;;
4508;SDS011;2267;48.816;9.230;2022-09-17T08:33:30;3.90;;;2.60;;
4508;SDS011;2267;48.816;9.230;2022-09-17T08:35:58;7.60;;;2.97;;
4508;SDS011;2267;48.816;9.230;2022-09-17T08:38:26;4.67;;;3.40;;
4508;SDS011;2267;48.816;9.230;2022-09-17T08:46:31;6.00;;;2.73;;
4508;SDS011;2267;48.816;9.230;2022-09-17T08:51:51;4.03;;;3.20;;
4508;SDS011;2267;48.816;9.230;2022-09-17T08:57:32;6.07;;;3.10;;
4508;SDS011;2267;48.816;9.230;2022-09-17T09:00:20;6.43;;;2.93;;
4508;SDS011;2267;48.816;9.230;2022-09-17T09:05:49;4.80;;;3.00;;
4508;SDS011;2267;48.816;9.230;2022-09-17T09:11:14;5.70;;;3.17;;
4508;SDS011;2267;48.816;9.230;2022-09-17T09:13:45;5.13;;;3.20;;
4508;SDS011;2267;48.816;9.230;2022-09-17T09:16:19;5.23;;;3.00;;
4508;SDS011;2267;48.816;9.230;2022-09-17T09:18:53;7.47;;;2.97;;
4508;SDS011;2267;48.816;9.230;2022-09-17T09:21:25;7.20;;;3.37;;
4508;SDS011;2267;48.816;9.230;2022-09-17T09:23:57;5.37;;;3.30;;
4508;SDS011;2267;48.816;9.230;2022-09-17T09:26:34;5.63;;;3.00;;
4508;SDS011;2267;48.816;9.230;2022-09-17T09:34:42;9.57;;;3.17;;
4508;SDS011;2267;48.816;9.230;2022-09-17T09:37:45;6.10;;;2.87;;
4508;SDS011;2267;48.816;9.230;2022-09-17T09:40:17;7.50;;;2.90;;
4508;SDS011;2267;48.816;9.230;2022-09-17T09:42:48;4.10;;;2.70;;
4508;SDS011;2267;48.816;9.230;2022-09-17T09:45:24;6.77;;;3.17;;
4508;SDS011;2267;48.816;9.230;2022-09-17T09:48:13;6.13;;;3.10;;
4508;SDS011;2267;48.816;9.230;2022-09-17T09:50:48;4.97;;;2.70;;
4508;SDS011;2267;48.816;9.230;2022-09-17T09:58:38;5.03;;;3.10;;
4508;SDS011;2267;48.816;9.230;2022-09-17T10:01:13;7.57;;;3.80;;
4508;SDS011;2267;48.816;9.230;2022-09-17T10:03:42;7.83;;;3.30;;
4508;SDS011;2267;48.816;9.230;2022-09-17T10:06:14;4.00;;;2.83;;
4508;SDS011;2267;48.816;9.230;2022-09-17T10:11:19;3.07;;;2.30;;
4508;SDS011;2267;48.816;9.230;2022-09-17T10:16:41;5.37;;;2.60;;
4508;SDS011;2267;48.816;9.230;2022-09-17T10:21:35;4.47;;;2.90;;
4508;SDS011;2267;48.816;9.230;2022-09-17T10:27:04;3.53;;;2.83;;
4508;SDS011;2267;48.816;9.230;2022-09-17T10:29:41;4.30;;;2.63;;
4508;SDS011;2267;48.816;9.230;2022-09-17T10:32:16;5.00;;;3.10;;
4508;SDS011;2267;48.816;9.230;2022-09-17T10:35:02;3.87;;;2.40;;
4508;SDS011;2267;48.816;9.230;2022-09-17T10:37:31;6.70;;;2.80;;
4508;SDS011;2267;48.816;9.230;2022-09-17T10:42:46;5.57;;;2.00;;
4508;SDS011;2267;48.816;9.230;2022-09-17T10:47:50;3.40;;;2.07;;
4508;SDS011;2267;48.816;9.230;2022-09-17T10:50:20;6.77;;;2.80;;
4508;SDS011;2267;48.816;9.230;2022-09-17T10:53:00;4.37;;;2.20;;
4508;SDS011;2267;48.816;9.230;2022-09-17T11:03:18;3.87;;;2.40;;
4508;SDS011;2267;48.816;9.230;2022-09-17T11:11:42;4.17;;;2.00;;
4508;SDS011;2267;48.816;9.230;2022-09-17T11:19:47;5.13;;;1.87;;
4508;SDS011;2267;48.816;9.230;2022-09-17T11:25:02;2.63;;;1.67;;
4508;SDS011;2267;48.816;9.230;2022-09-17T11:30:45;3.20;;;1.80;;
4508;SDS011;2267;48.816;9.230;2022-09-17T11:33:31;3.17;;;1.73;;
4508;SDS011;2267;48.816;9.230;2022-09-17T11:36:17;3.10;;;1.53;;
4508;SDS011;2267;48.816;9.230;2022-09-17T11:39:26;3.23;;;1.90;;
4508;SDS011;2267;48.816;9.230;2022-09-17T11:42:08;3.30;;;1.83;;
4508;SDS011;2267;48.816;9.230;2022-09-17T11:47:15;2.60;;;1.63;;
4508;SDS011;2267;48.816;9.230;2022-09-17T11:49:49;2.87;;;1.93;;
4508;SDS011;2267;48.816;9.230;2022-09-17T11:52:24;2.87;;;1.90;;
4508;SDS011;2267;48.816;9.230;2022-09-17T11:54:56;3.20;;;1.83;;
4508;SDS011;2267;48.816;9.230;2022-09-17T11:57:30;3.70;;;1.80;;
4508;SDS011;2267;48.816;9.230;2022-09-17T12:00:16;5.10;;;1.90;;
4508;SDS011;2267;48.816;9.230;2022-09-17T12:08:11;2.50;;;1.77;;
4508;SDS011;2267;48.816;9.230;2022-09-17T12:13:49;2.77;;;1.47;;
4508;SDS011;2267;48.816;9.230;2022-09-17T12:16:24;2.67;;;1.40;;
4508;SDS011;2267;48.816;9.230;2022-09-17T12:24:13;2.10;;;1.57;;
4508;SDS011;2267;48.816;9.230;2022-09-17T13:01:28;3.60;;;1.50;;
4508;SDS011;2267;48.816;9.230;2022-09-17T13:03:52;2.97;;;1.50;;
4508;SDS011;2267;48.816;9.230;2022-09-17T13:06:32;3.40;;;1.70;;
4508;SDS011;2267;48.816;9.230;2022-09-17T13:17:37;2.17;;;1.40;;
4508;SDS011;2267;48.816;9.230;2022-09-17T13:20:26;2.97;;;1.40;;
4508;SDS011;2267;48.816;9.230;2022-09-17T13:23:03;3.13;;;1.77;;
4508;SDS011;2267;48.816;9.230;2022-09-17T13:25:31;3.87;;;1.60;;
4508;SDS011;2267;48.816;9.230;2022-09-17T13:28:10;3.60;;;1.73;;
4508;SDS011;2267;48.816;9.230;2022-09-17T13:33:56;3.90;;;1.50;;
4508;SDS011;2267;48.816;9.230;2022-09-17T13:39:05;2.97;;;1.40;;
4508;SDS011;2267;48.816;9.230;2022-09-17T13:41:35;1.90;;;1.27;;
4508;SDS011;2267;48.816;9.230;2022-09-17T13:44:05;2.93;;;1.50;;
4508;SDS011;2267;48.816;9.230;2022-09-17T13:46:34;2.23;;;1.47;;
4508;SDS011;2267;48.816;9.230;2022-09-17T13:49:12;2.83;;;1.50;;
4508;SDS011;2267;48.816;9.230;2022-09-17T13:51:42;1.70;;;1.17;;
4508;SDS011;2267;48.816;9.230;2022-09-17T13:54:10;1.77;;;1.20;;
4508;SDS011;2267;48.816;9.230;2022-09-17T13:56:40;2.37;;;1.27;;
4508;SDS011;2267;48.816;9.230;2022-09-17T13:59:13;2.17;;;1.30;;
4508;SDS011;2267;48.816;9.230;2022-09-17T14:01:57;3.33;;;1.50;;
4508;SDS011;2267;48.816;9.230;2022-09-17T14:06:59;2.13;;;1.20;;
4508;SDS011;2267;48.816;9.230;2022-09-17T14:09:51;2.57;;;1.50;;
4508;SDS011;2267;48.816;9.230;2022-09-17T14:15:29;2.83;;;1.53;;
4508;SDS011;2267;48.816;9.230;2022-09-17T14:18:01;2.33;;;1.30;;
4508;SDS011;2267;48.816;9.230;2022-09-17T14:20:47;2.23;;;1.37;;
4508;SDS011;2267;48.816;9.230;2022-09-17T14:23:14;2.33;;;1.40;;
4508;SDS011;2267;48.816;9.230;2022-09-17T14:25:44;3.50;;;1.47;;
4508;SDS011;2267;48.816;9.230;2022-09-17T14:28:17;4.53;;;1.80;;
4508;SDS011;2267;48.816;9.230;2022-09-17T14:30:54;4.10;;;1.63;;
4508;SDS011;2267;48.816;9.230;2022-09-17T14:33:23;3.37;;;2.00;;
4508;SDS011;2267;48.816;9.230;2022-09-17T14:35:59;2.87;;;1.70;;
4508;SDS011;2267;48.816;9.230;2022-09-17T14:38:50;2.63;;;1.37;;
4508;SDS011;2267;48.816;9.230;2022-09-17T14:41:24;3.87;;;1.77;;
4508;SDS011;2267;48.816;9.230;2022-09-17T14:44:03;2.33;;;1.20;;
4508;SDS011;2267;48.816;9.230;2022-09-17T14:46:34;2.30;;;1.50;;
4508;SDS011;2267;48.816;9.230;2022-09-17T14:51:55;2.37;;;1.33;;
4508;SDS011;2267;48.816;9.230;2022-09-17T14:54:23;3.80;;;1.40;;
4508;SDS011;2267;48.816;9.230;2022-09-17T14:56:53;3.37;;;1.47;;
4508;SDS011;2267;48.816;9.230;2022-09-17T15:01:49;1.90;;;1.30;;
4508;SDS011;2267;48.816;9.230;2022-09-17T15:06:47;2.80;;;1.67;;
4508;SDS011;2267;48.816;9.230;2022-09-17T15:11:48;2.80;;;1.50;;
4508;SDS011;2267;48.816;9.230;2022-09-17T15:14:20;2.80;;;1.93;;
4508;SDS011;2267;48.816;9.230;2022-09-17T15:16:53;2.57;;;1.60;;
4508;SDS011;2267;48.816;9.230;2022-09-17T15:19:22;3.60;;;1.70;;
4508;SDS011;2267;48.816;9.230;2022-09-17T15:21:58;4.37;;;1.97;;
4508;SDS011;2267;48.816;9.230;2022-09-17T15:27:18;2.70;;;1.83;;
4508;SDS011;2267;48.816;9.230;2022-09-17T15:32:37;3.33;;;1.83;;
4508;SDS011;2267;48.816;9.230;2022-09-17T15:37:44;2.17;;;1.60;;
4508;SDS011;2267;48.816;9.230;2022-09-17T15:40:41;4.80;;;2.20;;
4508;SDS011;2267;48.816;9.230;2022-09-17T15:43:20;3.03;;;2.00;;
4508;SDS011;2267;48.816;9.230;2022-09-17T15:45:54;3.40;;;1.50;;
4508;SDS011;2267;48.816;9.230;2022-09-17T15:50:50;3.47;;;1.90;;
4508;SDS011;2267;48.816;9.230;2022-09-17T15:53:21;4.07;;;1.67;;
4508;SDS011;2267;48.816;9.230;2022-09-17T16:08:45;4.40;;;2.10;;
4508;SDS011;2267;48.816;9.230;2022-09-17T16:11:14;2.40;;;1.80;;
4508;SDS011;2267;48.816;9.230;2022-09-17T16:13:41;3.40;;;1.57;;
4508;SDS011;2267;48.816;9.230;2022-09-17T16:16:11;2.50;;;1.80;;
4508;SDS011;2267;48.816;9.230;2022-09-17T16:18:40;3.60;;;2.17;;
4508;SDS011;2267;48.816;9.230;2022-09-17T16:21:10;3.67;;;1.77;;
4508;SDS011;2267;48.816;9.230;2022-09-17T16:23:38;2.70;;;1.60;;
4508;SDS011;2267;48.816;9.230;2022-09-17T16:26:05;1.93;;;1.20;;
4508;SDS011;2267;48.816;9.230;2022-09-17T16:28:37;2.43;;;1.50;;
4508;SDS011;2267;48.816;9.230;2022-09-17T16:31:05;3.17;;;1.80;;
4508;SDS011;2267;48.816;9.230;2022-09-17T16:33:32;2.70;;;1.67;;
4508;SDS011;2267;48.816;9.230;2022-09-17T16:35:59;4.03;;;2.30;;
4508;SDS011;2267;48.816;9.230;2022-09-17T16:38:26;2.73;;;1.87;;
4508;SDS011;2267;48.816;9.230;2022-09-17T16:40:53;3.17;;;1.80;;
4508;SDS011;2267;48.816;9.230;2022-09-17T16:43:20;3.67;;;2.00;;
4508;SDS011;2267;48.816;9.230;2022-09-17T16:48:26;2.90;;;1.53;;
4508;SDS011;2267;48.816;9.230;2022-09-17T16:50:53;4.63;;;1.93;;
4508;SDS011;2267;48.816;9.230;2022-09-17T16:53:20;3.90;;;1.80;;
4508;SDS011;2267;48.816;9.230;2022-09-17T16:55:47;2.80;;;1.90;;
4508;SDS011;2267;48.816;9.230;2022-09-17T16:58:13;5.30;;;2.20;;
4508;SDS011;2267;48.816;9.230;2022-09-17T17:00:41;4.13;;;1.87;;
4508;SDS011;2267;48.816;9.230;2022-09-17T17:03:10;5.50;;;2.10;;
4508;SDS011;2267;48.816;9.230;2022-09-17T17:05:38;3.00;;;2.00;;
4508;SDS011;2267;48.816;9.230;2022-09-17T17:08:06;3.93;;;2.40;;
4508;SDS011;2267;48.816;9.230;2022-09-17T17:10:34;6.63;;;2.33;;
4508;SDS011;2267;48.816;9.230;2022-09-17T17:13:03;4.13;;;2.30;;
4508;SDS011;2267;48.816;9.230;2022-09-17T17:15:30;3.40;;;1.80;;
4508;SDS011;2267;48.816;9.230;2022-09-17T17:17:57;3.83;;;2.33;;
4508;SDS011;2267;48.816;9.230;2022-09-17T17:20:24;3.30;;;1.80;;
4508;SDS011;2267;48.816;9.230;2022-09-17T17:22:50;4.53;;;2.47;;
4508;SDS011;2267;48.816;9.230;2022-09-17T17:25:17;3.60;;;2.27;;
4508;SDS011;2267;48.816;9.230;2022-09-17T17:27:44;3.53;;;1.80;;
4508;SDS011;2267;48.816;9.230;2022-09-17T17:30:11;3.93;;;2.03;;
4508;SDS011;2267;48.816;9.230;2022-09-17T17:32:43;4.37;;;1.90;;
4508;SDS011;2267;48.816;9.230;2022-09-17T17:35:14;4.40;;;1.97;;
4508;SDS011;2267;48.816;9.230;2022-09-17T17:37:41;3.63;;;1.77;;
4508;SDS011;2267;48.816;9.230;2022-09-17T17:40:07;6.27;;;2.30;;
4508;SDS011;2267;48.816;9.230;2022-09-17T17:42:35;4.10;;;1.90;;
4508;SDS011;2267;48.816;9.230;2022-09-17T17:45:04;3.67;;;3.10;;
4508;SDS011;2267;48.816;9.230;2022-09-17T17:47:33;3.40;;;1.97;;
4508;SDS011;2267;48.816;9.230;2022-09-17T17:50:00;3.43;;;2.07;;
4508;SDS011;2267;48.816;9.230;2022-09-17T17:52:27;3.40;;;2.73;;
4508;SDS011;2267;48.816;9.230;2022-09-17T17:54:54;4.53;;;3.57;;
4508;SDS011;2267;48.816;9.230;2022-09-17T17:57:20;4.70;;;2.77;;
4508;SDS011;2267;48.816;9.230;2022-09-17T17:59:47;7.10;;;3.33;;
4508;SDS011;2267;48.816;9.230;2022-09-17T18:02:14;5.77;;;2.80;;
4508;SDS011;2267;48.816;9.230;2022-09-17T18:04:41;4.30;;;2.70;;
4508;SDS011;2267;48.816;9.230;2022-09-17T18:07:07;3.23;;;2.40;;
4508;SDS011;2267;48.816;9.230;2022-09-17T18:09:34;8.93;;;3.10;;
4508;SDS011;2267;48.816;9.230;2022-09-17T18:12:01;2.80;;;2.40;;
4508;SDS011;2267;48.816;9.230;2022-09-17T18:14:28;3.23;;;2.50;;
4508;SDS011;2267;48.816;9.230;2022-09-17T18:16:55;3.67;;;2.90;;
4508;SDS011;2267;48.816;9.230;2022-09-17T18:19:21;4.30;;;2.20;;
4508;SDS011;2267;48.816;9.230;2022-09-17T18:21:48;7.50;;;3.23;;
4508;SDS011;2267;48.816;9.230;2022-09-17T18:24:15;2.77;;;2.33;;
4508;SDS011;2267;48.816;9.230;2022-09-17T18:26:42;3.47;;;2.23;;
4508;SDS011;2267;48.816;9.230;2022-09-17T18:29:08;5.53;;;2.73;;
4508;SDS011;2267;48.816;9.230;2022-09-17T18:31:36;3.10;;;2.10;;
4508;SDS011;2267;48.816;9.230;2022-09-17T18:34:08;3.23;;;2.47;;
4508;SDS011;2267;48.816;9.230;2022-09-17T18:36:37;3.67;;;2.27;;
4508;SDS011;2267;48.816;9.230;2022-09-17T18:39:06;3.70;;;1.80;;
4508;SDS011;2267;48.816;9.230;2022-09-17T18:41:55;5.30;;;2.33;;
4508;SDS011;2267;48.816;9.230;2022-09-17T18:44:22;2.20;;;1.90;;
4508;SDS011;2267;48.816;9.230;2022-09-17T18:46:50;3.50;;;2.27;;
4508;SDS011;2267;48.816;9.230;2022-09-17T18:49:17;2.70;;;2.10;;
4508;SDS011;2267;48.816;9.230;2022-09-17T18:51:43;3.07;;;1.77;;
4508;SDS011;2267;48.816;9.230;2022-09-17T18:54:11;2.47;;;2.10;;
4508;SDS011;2267;48.816;9.230;2022-09-17T18:56:38;2.10;;;1.70;;
4508;SDS011;2267;48.816;9.230;2022-09-17T18:59:06;2.77;;;1.93;;
4508;SDS011;2267;48.816;9.230;2022-09-17T19:01:34;6.30;;;2.30;;
4508;SDS011;2267;48.816;9.230;2022-09-17T19:04:01;2.73;;;1.90;;
4508;SDS011;2267;48.816;9.230;2022-09-17T19:06:28;3.90;;;2.40;;
4508;SDS011;2267;48.816;9.230;2022-09-17T19:08:58;4.07;;;2.03;;